sensor_id;sensor_type;location;lat;lon;timestamp;pressure;altitude;pressure_sealevel;temperature;humidity
18022;BME280;9136;48.822;7.966;2023-03-19T00:02:34;99932.44;;;9.49;100.00
18022;BME280;9136;48.822;7.966;2023-03-19T00:05:22;99946.41;;;9.50;100.00
18022;BME280;9136;48.822;7.966;2023-03-19T00:08:10;99921.81;;;9.26;100.00
18022;BME280;9136;48.822;7.966;2023-03-19T00:10:58;99959.75;;;9.42;100.00
18022;BME280;9136;48.822;7.966;2023-03-19T00:13:47;99943.97;;;9.17;100.00
18022;BME280;9136;48.822;7.966;2023-03-19T00:16:35;99950.91;;;9.18;100.00
18022;BME280;9136;48.822;7.966;2023-03-19T00:19:23;99955.03;;;9.27;100.00
18022;BME280;9136;48.822;7.966;2023-03-19T00:22:11;99961.25;;;9.23;100.00
18022;BME280;9136;48.822;7.966;2023-03-19T00:24:59;99963.53;;;9.33;100.00
18022;BME280;9136;48.822;7.966;2023-03-19T00:27:47;99973.16;;;9.33;100.00
18022;BME280;9136;48.822;7.966;2023-03-19T00:30:37;99953.38;;;9.23;100.00
18022;BME280;9136;48.822;7.966;2023-03-19T00:33:25;99970.81;;;9.24;100.00
18022;BME280;9136;48.822;7.966;2023-03-19T00:36:13;99969.78;;;9.29;100.00
18022;BME280;9136;48.822;7.966;2023-03-19T00:39:01;99948.31;;;9.16;100.00
18022;BME280;9136;48.822;7.966;2023-03-19T00:41:49;99949.50;;;9.08;100.00
18022;BME280;9136;48.822;7.966;2023-03-19T00:44:37;99980.78;;;9.12;100.00
18022;BME280;9136;48.822;7.966;2023-03-19T00:47:26;99949.78;;;8.97;100.00
18022;BME280;9136;48.822;7.966;2023-03-19T00:50:14;99968.13;;;8.97;100.00
18022;BME280;9136;48.822;7.966;2023-03-19T00:53:02;99959.53;;;8.94;100.00
18022;BME280;9136;48.822;7.966;2023-03-19T00:55:50;99979.16;;;9.08;100.00
18022;BME280;9136;48.822;7.966;2023-03-19T00:58:38;99976.72;;;9.02;100.00
18022;BME280;9136;48.822;7.966;2023-03-19T01:01:26;99993.88;;;9.12;100.00
18022;BME280;9136;48.822;7.966;2023-03-19T01:04:15;100022.09;;;9.32;100.00
18022;BME280;9136;48.822;7.966;2023-03-19T01:07:04;100024.81;;;9.29;100.00
18022;BME280;9136;48.822;7.966;2023-03-19T01:09:52;100002.84;;;9.33;100.00
18022;BME280;9136;48.822;7.966;2023-03-19T01:12:40;100007.22;;;9.33;100.00
18022;BME280;9136;48.822;7.966;2023-03-19T01:15:28;99999.38;;;9.33;100.00
18022;BME280;9136;48.822;7.966;2023-03-19T01:18:16;100001.88;;;9.36;100.00
18022;BME280;9136;48.822;7.966;2023-03-19T01:21:06;99999.25;;;9.37;100.00
18022;BME280;9136;48.822;7.966;2023-03-19T01:23:56;100003.22;;;9.49;100.00
18022;BME280;9136;48.822;7.966;2023-03-19T01:26:47;99993.78;;;9.43;100.00
18022;BME280;9136;48.822;7.966;2023-03-19T01:29:35;99981.34;;;9.50;100.00
18022;BME280;9136;48.822;7.966;2023-03-19T01:32:23;99989.53;;;9.67;100.00
18022;BME280;9136;48.822;7.966;2023-03-19T01:35:13;99987.53;;;9.75;100.00
18022;BME280;9136;48.822;7.966;2023-03-19T01:38:02;99962.16;;;9.74;100.00
18022;BME280;9136;48.822;7.966;2023-03-19T01:40:54;99995.03;;;9.86;100.00
18022;BME280;9136;48.822;7.966;2023-03-19T01:43:44;100004.06;;;10.04;100.00
18022;BME280;9136;48.822;7.966;2023-03-19T01:46:33;99975.84;;;9.84;100.00
18022;BME280;9136;48.822;7.966;2023-03-19T01:49:23;100019.19;;;9.96;100.00
18022;BME280;9136;48.822;7.966;2023-03-19T01:52:14;99997.13;;;10.01;100.00
18022;BME280;9136;48.822;7.966;2023-03-19T01:55:08;99994.50;;;10.01;100.00
18022;BME280;9136;48.822;7.966;2023-03-19T01:58:19;99964.53;;;9.82;100.00
18022;BME280;9136;48.822;7.966;2023-03-19T02:01:15;99987.16;;;9.86;100.00
18022;BME280;9136;48.822;7.966;2023-03-19T02:04:14;99972.59;;;9.78;100.00
18022;BME280;9136;48.822;7.966;2023-03-19T02:07:40;99971.22;;;9.66;100.00
18022;BME280;9136;48.822;7.966;2023-03-19T02:10:46;99996.94;;;9.81;100.00
18022;BME280;9136;48.822;7.966;2023-03-19T02:14:11;99960.88;;;9.61;100.00
18022;BME280;9136;48.822;7.966;2023-03-19T02:20:59;99992.03;;;9.70;100.00
18022;BME280;9136;48.822;7.966;2023-03-19T02:24:05;99997.19;;;9.73;100.00
18022;BME280;9136;48.822;7.966;2023-03-19T02:31:08;99959.91;;;9.64;100.00
18022;BME280;9136;48.822;7.966;2023-03-19T02:35:02;100003.66;;;9.90;100.00
18022;BME280;9136;48.822;7.966;2023-03-19T02:38:39;99971.66;;;9.79;100.00
18022;BME280;9136;48.822;7.966;2023-03-19T02:41:43;99980.84;;;9.92;100.00
18022;BME280;9136;48.822;7.966;2023-03-19T02:46:15;99999.84;;;9.98;100.00
18022;BME280;9136;48.822;7.966;2023-03-19T02:48:57;99978.31;;;9.89;100.00
18022;BME280;9136;48.822;7.966;2023-03-19T02:52:54;99976.31;;;9.97;100.00
18022;BME280;9136;48.822;7.966;2023-03-19T02:56:33;99978.31;;;9.89;100.00
18022;BME280;9136;48.822;7.966;2023-03-19T02:59:33;100023.78;;;10.16;100.00
18022;BME280;9136;48.822;7.966;2023-03-19T03:02:34;99977.94;;;9.99;100.00
18022;BME280;9136;48.822;7.966;2023-03-19T03:05:34;100000.53;;;10.03;100.00
18022;BME280;9136;48.822;7.966;2023-03-19T03:08:33;99978.69;;;9.78;100.00
18022;BME280;9136;48.822;7.966;2023-03-19T03:11:26;99992.78;;;9.74;100.00
18022;BME280;9136;48.822;7.966;2023-03-19T03:14:28;100015.34;;;9.80;100.00
18022;BME280;9136;48.822;7.966;2023-03-19T03:17:29;100016.03;;;9.86;100.00
18022;BME280;9136;48.822;7.966;2023-03-19T03:24:20;99989.13;;;9.80;100.00
18022;BME280;9136;48.822;7.966;2023-03-19T03:27:29;100015.66;;;9.97;100.00
18022;BME280;9136;48.822;7.966;2023-03-19T03:30:25;99977.66;;;9.82;100.00
18022;BME280;9136;48.822;7.966;2023-03-19T03:33:15;99995.16;;;9.82;100.00
18022;BME280;9136;48.822;7.966;2023-03-19T03:36:13;100003.09;;;9.80;100.00
18022;BME280;9136;48.822;7.966;2023-03-19T03:42:55;100011.78;;;9.56;100.00
18022;BME280;9136;48.822;7.966;2023-03-19T03:46:01;100020.38;;;9.59;100.00
18022;BME280;9136;48.822;7.966;2023-03-19T03:49:05;100017.81;;;9.58;100.00
18022;BME280;9136;48.822;7.966;2023-03-19T03:52:01;100017.16;;;9.51;100.00
18022;BME280;9136;48.822;7.966;2023-03-19T03:55:17;99999.88;;;9.44;100.00
18022;BME280;9136;48.822;7.966;2023-03-19T03:58:49;100003.69;;;9.34;100.00
18022;BME280;9136;48.822;7.966;2023-03-19T04:01:36;99997.72;;;9.30;100.00
18022;BME280;9136;48.822;7.966;2023-03-19T04:04:34;99999.00;;;9.17;100.00
18022;BME280;9136;48.822;7.966;2023-03-19T04:07:53;100000.94;;;9.10;100.00
18022;BME280;9136;48.822;7.966;2023-03-19T04:10:54;100007.66;;;9.19;100.00
18022;BME280;9136;48.822;7.966;2023-03-19T04:13:44;100049.66;;;9.45;100.00
18022;BME280;9136;48.822;7.966;2023-03-19T04:16:33;100039.38;;;9.39;100.00
18022;BME280;9136;48.822;7.966;2023-03-19T04:19:28;100020.22;;;9.36;100.00
18022;BME280;9136;48.822;7.966;2023-03-19T04:22:26;100025.63;;;9.31;100.00
18022;BME280;9136;48.822;7.966;2023-03-19T04:25:27;100015.38;;;9.24;100.00
18022;BME280;9136;48.822;7.966;2023-03-19T04:28:25;100019.91;;;9.18;100.00
18022;BME280;9136;48.822;7.966;2023-03-19T04:31:42;100013.03;;;9.14;100.00
18022;BME280;9136;48.822;7.966;2023-03-19T04:34:48;100032.28;;;9.13;100.00
18022;BME280;9136;48.822;7.966;2023-03-19T04:38:22;100023.97;;;8.99;100.00
18022;BME280;9136;48.822;7.966;2023-03-19T04:41:11;100026.66;;;8.98;100.00
18022;BME280;9136;48.822;7.966;2023-03-19T04:44:08;100014.56;;;8.92;100.00
18022;BME280;9136;48.822;7.966;2023-03-19T04:47:10;100038.66;;;9.05;100.00
18022;BME280;9136;48.822;7.966;2023-03-19T04:50:11;100039.06;;;8.91;100.00
18022;BME280;9136;48.822;7.966;2023-03-19T04:53:02;100017.50;;;8.81;100.00
18022;BME280;9136;48.822;7.966;2023-03-19T04:55:54;100033.91;;;8.88;100.00
18022;BME280;9136;48.822;7.966;2023-03-19T04:58:54;100016.72;;;8.78;100.00
18022;BME280;9136;48.822;7.966;2023-03-19T05:01:44;100006.66;;;8.64;100.00
18022;BME280;9136;48.822;7.966;2023-03-19T05:04:42;100026.59;;;8.68;100.00
18022;BME280;9136;48.822;7.966;2023-03-19T05:07:44;100045.63;;;8.75;100.00
18022;BME280;9136;48.822;7.966;2023-03-19T05:10:32;100048.91;;;8.83;100.00
18022;BME280;9136;48.822;7.966;2023-03-19T05:13:22;100026.38;;;8.76;100.00
18022;BME280;9136;48.822;7.966;2023-03-19T05:16:12;100033.28;;;8.80;100.00
18022;BME280;9136;48.822;7.966;2023-03-19T05:19:04;100035.16;;;8.75;100.00
18022;BME280;9136;48.822;7.966;2023-03-19T05:21:55;100044.47;;;8.85;100.00
18022;BME280;9136;48.822;7.966;2023-03-19T05:24:43;100053.13;;;8.87;100.00
18022;BME280;9136;48.822;7.966;2023-03-19T05:27:33;100054.88;;;8.88;100.00
18022;BME280;9136;48.822;7.966;2023-03-19T05:30:25;100079.00;;;8.99;100.00
18022;BME280;9136;48.822;7.966;2023-03-19T05:33:13;100039.41;;;8.79;100.00
18022;BME280;9136;48.822;7.966;2023-03-19T05:36:01;100048.13;;;8.79;100.00
18022;BME280;9136;48.822;7.966;2023-03-19T05:38:54;100048.28;;;8.73;100.00
18022;BME280;9136;48.822;7.966;2023-03-19T05:41:42;100037.16;;;8.65;100.00
18022;BME280;9136;48.822;7.966;2023-03-19T05:44:30;100073.16;;;8.89;100.00
18022;BME280;9136;48.822;7.966;2023-03-19T05:47:21;100057.66;;;8.82;100.00
18022;BME280;9136;48.822;7.966;2023-03-19T05:50:15;100089.44;;;9.01;100.00
18022;BME280;9136;48.822;7.966;2023-03-19T05:53:06;100068.47;;;9.01;100.00
18022;BME280;9136;48.822;7.966;2023-03-19T05:56:03;100048.69;;;8.91;100.00
18022;BME280;9136;48.822;7.966;2023-03-19T05:58:55;100041.78;;;8.88;100.00
18022;BME280;9136;48.822;7.966;2023-03-19T06:02:02;100052.16;;;8.91;100.00
18022;BME280;9136;48.822;7.966;2023-03-19T06:04:56;100062.28;;;9.03;100.00
18022;BME280;9136;48.822;7.966;2023-03-19T06:07:44;100054.59;;;8.97;100.00
18022;BME280;9136;48.822;7.966;2023-03-19T06:10:39;100066.56;;;9.06;100.00
18022;BME280;9136;48.822;7.966;2023-03-19T06:13:32;100072.50;;;9.12;100.00
18022;BME280;9136;48.822;7.966;2023-03-19T06:16:20;100081.84;;;9.21;100.00
18022;BME280;9136;48.822;7.966;2023-03-19T06:19:11;100062.22;;;9.05;100.00
18022;BME280;9136;48.822;7.966;2023-03-19T06:22:01;100070.41;;;8.94;100.00
18022;BME280;9136;48.822;7.966;2023-03-19T06:24:49;100055.00;;;8.83;100.00
18022;BME280;9136;48.822;7.966;2023-03-19T06:27:42;100072.38;;;8.86;100.00
18022;BME280;9136;48.822;7.966;2023-03-19T06:30:32;100069.84;;;8.83;100.00
18022;BME280;9136;48.822;7.966;2023-03-19T06:33:23;100077.56;;;8.89;100.00
18022;BME280;9136;48.822;7.966;2023-03-19T06:36:21;100086.75;;;9.02;100.00
18022;BME280;9136;48.822;7.966;2023-03-19T06:39:15;100102.28;;;9.10;100.00
18022;BME280;9136;48.822;7.966;2023-03-19T06:42:05;100087.63;;;9.03;100.00
18022;BME280;9136;48.822;7.966;2023-03-19T06:45:02;100084.78;;;9.10;100.00
18022;BME280;9136;48.822;7.966;2023-03-19T06:47:54;100113.00;;;9.32;100.00
18022;BME280;9136;48.822;7.966;2023-03-19T06:50:46;100082.81;;;9.18;100.00
18022;BME280;9136;48.822;7.966;2023-03-19T06:53:36;100080.91;;;9.24;100.00
18022;BME280;9136;48.822;7.966;2023-03-19T06:56:25;100083.19;;;9.34;100.00
18022;BME280;9136;48.822;7.966;2023-03-19T06:59:15;100123.41;;;9.63;100.00
18022;BME280;9136;48.822;7.966;2023-03-19T07:02:05;100096.50;;;9.58;100.00
18022;BME280;9136;48.822;7.966;2023-03-19T07:05:03;100075.88;;;9.45;100.00
18022;BME280;9136;48.822;7.966;2023-03-19T07:07:51;100068.03;;;9.44;100.00
18022;BME280;9136;48.822;7.966;2023-03-19T07:10:39;100077.63;;;9.45;100.00
18022;BME280;9136;48.822;7.966;2023-03-19T07:13:29;100089.22;;;9.38;100.00
18022;BME280;9136;48.822;7.966;2023-03-19T07:16:23;100106.78;;;9.34;100.00
18022;BME280;9136;48.822;7.966;2023-03-19T07:19:12;100108.97;;;9.50;100.00
18022;BME280;9136;48.822;7.966;2023-03-19T07:22:04;100101.91;;;9.52;100.00
18022;BME280;9136;48.822;7.966;2023-03-19T07:24:53;100099.13;;;9.58;100.00
18022;BME280;9136;48.822;7.966;2023-03-19T07:28:11;100098.09;;;9.62;100.00
18022;BME280;9136;48.822;7.966;2023-03-19T07:31:00;100117.31;;;9.62;100.00
18022;BME280;9136;48.822;7.966;2023-03-19T07:33:50;100118.09;;;9.66;100.00
18022;BME280;9136;48.822;7.966;2023-03-19T07:36:40;100107.88;;;9.57;100.00
18022;BME280;9136;48.822;7.966;2023-03-19T07:39:30;100105.56;;;9.75;100.00
18022;BME280;9136;48.822;7.966;2023-03-19T07:42:20;100107.69;;;9.91;100.00
18022;BME280;9136;48.822;7.966;2023-03-19T07:45:08;100112.34;;;10.09;100.00
18022;BME280;9136;48.822;7.966;2023-03-19T07:48:07;100119.34;;;10.37;100.00
18022;BME280;9136;48.822;7.966;2023-03-19T07:50:58;100121.47;;;10.52;100.00
18022;BME280;9136;48.822;7.966;2023-03-19T07:54:00;100133.94;;;10.70;100.00
18022;BME280;9136;48.822;7.966;2023-03-19T07:56:52;100109.91;;;10.82;100.00
18022;BME280;9136;48.822;7.966;2023-03-19T07:59:54;100117.00;;;11.04;100.00
18022;BME280;9136;48.822;7.966;2023-03-19T08:02:43;100126.91;;;11.21;100.00
18022;BME280;9136;48.822;7.966;2023-03-19T08:05:33;100112.50;;;11.31;100.00
18022;BME280;9136;48.822;7.966;2023-03-19T08:08:24;100110.13;;;11.46;100.00
18022;BME280;9136;48.822;7.966;2023-03-19T08:11:15;100108.16;;;11.75;100.00
18022;BME280;9136;48.822;7.966;2023-03-19T08:14:05;100115.13;;;11.99;100.00
18022;BME280;9136;48.822;7.966;2023-03-19T08:16:54;100142.84;;;12.30;100.00
18022;BME280;9136;48.822;7.966;2023-03-19T08:19:44;100151.25;;;12.80;100.00
18022;BME280;9136;48.822;7.966;2023-03-19T08:22:34;100130.56;;;12.92;100.00
18022;BME280;9136;48.822;7.966;2023-03-19T08:25:24;100140.69;;;13.01;100.00
18022;BME280;9136;48.822;7.966;2023-03-19T08:28:12;100131.38;;;12.94;100.00
18022;BME280;9136;48.822;7.966;2023-03-19T08:31:07;100126.22;;;12.90;100.00
18022;BME280;9136;48.822;7.966;2023-03-19T08:33:55;100130.09;;;12.82;100.00
18022;BME280;9136;48.822;7.966;2023-03-19T08:36:45;100150.25;;;12.83;100.00
18022;BME280;9136;48.822;7.966;2023-03-19T08:39:34;100139.53;;;12.67;100.00
18022;BME280;9136;48.822;7.966;2023-03-19T08:42:24;100113.44;;;12.61;100.00
18022;BME280;9136;48.822;7.966;2023-03-19T08:45:19;100130.97;;;12.82;100.00
18022;BME280;9136;48.822;7.966;2023-03-19T08:48:09;100120.59;;;12.98;100.00
18022;BME280;9136;48.822;7.966;2023-03-19T08:51:02;100127.72;;;13.16;100.00
18022;BME280;9136;48.822;7.966;2023-03-19T08:53:52;100123.28;;;13.17;100.00
18022;BME280;9136;48.822;7.966;2023-03-19T08:56:40;100134.38;;;13.25;100.00
18022;BME280;9136;48.822;7.966;2023-03-19T08:59:28;100131.91;;;13.22;98.53
18022;BME280;9136;48.822;7.966;2023-03-19T09:02:20;100154.75;;;13.61;97.79
18022;BME280;9136;48.822;7.966;2023-03-19T09:05:10;100142.44;;;13.60;96.38
18022;BME280;9136;48.822;7.966;2023-03-19T09:07:58;100130.53;;;13.70;89.63
18022;BME280;9136;48.822;7.966;2023-03-19T09:10:46;100141.81;;;13.55;90.45
18022;BME280;9136;48.822;7.966;2023-03-19T09:13:35;100145.50;;;13.51;88.13
18022;BME280;9136;48.822;7.966;2023-03-19T09:16:23;100155.97;;;13.72;84.37
18022;BME280;9136;48.822;7.966;2023-03-19T09:19:12;100126.06;;;13.53;87.48
18022;BME280;9136;48.822;7.966;2023-03-19T09:22:02;100166.09;;;13.82;83.58
18022;BME280;9136;48.822;7.966;2023-03-19T09:24:50;100150.88;;;13.49;83.58
18022;BME280;9136;48.822;7.966;2023-03-19T09:27:40;100154.44;;;13.67;87.45
18022;BME280;9136;48.822;7.966;2023-03-19T09:30:28;100159.38;;;13.74;90.52
18022;BME280;9136;48.822;7.966;2023-03-19T09:33:17;100158.44;;;13.75;86.21
18022;BME280;9136;48.822;7.966;2023-03-19T09:36:07;100156.38;;;13.82;85.94
18022;BME280;9136;48.822;7.966;2023-03-19T09:39:00;100153.00;;;13.97;84.04
18022;BME280;9136;48.822;7.966;2023-03-19T09:41:59;100159.69;;;14.23;86.44
18022;BME280;9136;48.822;7.966;2023-03-19T09:44:51;100176.03;;;14.31;82.23
18022;BME280;9136;48.822;7.966;2023-03-19T09:47:39;100178.03;;;14.63;81.77
18022;BME280;9136;48.822;7.966;2023-03-19T09:50:30;100163.97;;;14.43;85.50
18022;BME280;9136;48.822;7.966;2023-03-19T09:53:25;100160.13;;;14.14;84.69
18022;BME280;9136;48.822;7.966;2023-03-19T09:56:21;100156.72;;;14.12;83.53
18022;BME280;9136;48.822;7.966;2023-03-19T09:59:09;100176.31;;;14.25;80.10
18022;BME280;9136;48.822;7.966;2023-03-19T10:02:02;100145.41;;;14.09;80.04
18022;BME280;9136;48.822;7.966;2023-03-19T10:04:59;100171.75;;;14.48;80.31
18022;BME280;9136;48.822;7.966;2023-03-19T10:08:17;100160.84;;;14.71;81.39
18022;BME280;9136;48.822;7.966;2023-03-19T10:11:25;100161.06;;;14.84;73.88
18022;BME280;9136;48.822;7.966;2023-03-19T10:14:37;100159.34;;;15.00;71.99
18022;BME280;9136;48.822;7.966;2023-03-19T10:17:31;100165.78;;;15.12;70.43
18022;BME280;9136;48.822;7.966;2023-03-19T10:20:28;100176.72;;;15.72;63.67
18022;BME280;9136;48.822;7.966;2023-03-19T10:23:31;100169.56;;;16.21;60.47
18022;BME280;9136;48.822;7.966;2023-03-19T10:26:25;100194.28;;;16.68;59.87
18022;BME280;9136;48.822;7.966;2023-03-19T10:29:18;100188.88;;;16.23;57.19
18022;BME280;9136;48.822;7.966;2023-03-19T10:32:14;100162.03;;;15.98;55.19
18022;BME280;9136;48.822;7.966;2023-03-19T10:35:07;100171.06;;;15.62;59.01
18022;BME280;9136;48.822;7.966;2023-03-19T10:38:10;100179.94;;;15.61;61.42
18022;BME280;9136;48.822;7.966;2023-03-19T10:41:18;100170.34;;;15.59;61.94
18022;BME280;9136;48.822;7.966;2023-03-19T10:44:16;100186.69;;;15.34;60.70
18022;BME280;9136;48.822;7.966;2023-03-19T10:47:10;100182.22;;;15.01;64.24
18022;BME280;9136;48.822;7.966;2023-03-19T10:49:58;100174.06;;;14.71;70.01
18022;BME280;9136;48.822;7.966;2023-03-19T10:52:50;100198.97;;;14.67;70.92
18022;BME280;9136;48.822;7.966;2023-03-19T10:55:43;100186.97;;;14.60;69.24
18022;BME280;9136;48.822;7.966;2023-03-19T10:58:34;100211.63;;;14.95;68.90
18022;BME280;9136;48.822;7.966;2023-03-19T11:01:31;100161.47;;;14.76;65.44
18022;BME280;9136;48.822;7.966;2023-03-19T11:04:21;100195.00;;;15.10;68.44
18022;BME280;9136;48.822;7.966;2023-03-19T11:07:12;100166.91;;;14.91;65.44
18022;BME280;9136;48.822;7.966;2023-03-19T11:10:01;100184.28;;;14.79;67.43
18022;BME280;9136;48.822;7.966;2023-03-19T11:12:51;100188.16;;;14.72;66.71
18022;BME280;9136;48.822;7.966;2023-03-19T11:15:46;100177.63;;;14.53;76.25
18022;BME280;9136;48.822;7.966;2023-03-19T11:18:38;100181.31;;;14.31;74.84
18022;BME280;9136;48.822;7.966;2023-03-19T11:21:28;100199.94;;;14.47;75.90
18022;BME280;9136;48.822;7.966;2023-03-19T11:24:19;100198.78;;;14.53;75.83
18022;BME280;9136;48.822;7.966;2023-03-19T11:27:08;100188.84;;;14.58;76.60
18022;BME280;9136;48.822;7.966;2023-03-19T11:29:57;100184.06;;;14.47;75.47
18022;BME280;9136;48.822;7.966;2023-03-19T11:33:01;100175.09;;;14.32;72.40
18022;BME280;9136;48.822;7.966;2023-03-19T11:36:00;100174.72;;;14.40;76.42
18022;BME280;9136;48.822;7.966;2023-03-19T11:39:00;100151.59;;;14.26;77.79
18022;BME280;9136;48.822;7.966;2023-03-19T11:42:24;100171.75;;;14.48;76.60
18022;BME280;9136;48.822;7.966;2023-03-19T11:45:23;100170.50;;;14.36;77.12
18022;BME280;9136;48.822;7.966;2023-03-19T11:48:25;100168.31;;;14.27;79.56
18022;BME280;9136;48.822;7.966;2023-03-19T11:51:19;100171.88;;;14.62;78.85
18022;BME280;9136;48.822;7.966;2023-03-19T11:54:16;100172.19;;;14.91;77.96
18022;BME280;9136;48.822;7.966;2023-03-19T11:57:23;100167.19;;;15.19;78.27
18022;BME280;9136;48.822;7.966;2023-03-19T12:00:41;100156.81;;;15.32;80.13
18022;BME280;9136;48.822;7.966;2023-03-19T12:03:47;100159.13;;;15.38;78.01
18022;BME280;9136;48.822;7.966;2023-03-19T12:06:53;100182.19;;;15.36;78.30
18022;BME280;9136;48.822;7.966;2023-03-19T12:09:56;100159.66;;;15.11;84.33
18022;BME280;9136;48.822;7.966;2023-03-19T12:12:56;100152.66;;;15.10;77.08
18022;BME280;9136;48.822;7.966;2023-03-19T12:15:55;100146.34;;;14.96;83.22
18022;BME280;9136;48.822;7.966;2023-03-19T12:19:06;100139.09;;;15.50;85.16
18022;BME280;9136;48.822;7.966;2023-03-19T12:25:51;100161.44;;;16.24;73.23
18022;BME280;9136;48.822;7.966;2023-03-19T12:28:58;100148.38;;;16.06;71.97
18022;BME280;9136;48.822;7.966;2023-03-19T12:32:15;100150.34;;;15.37;73.07
18022;BME280;9136;48.822;7.966;2023-03-19T12:35:14;100177.38;;;15.27;74.21
18022;BME280;9136;48.822;7.966;2023-03-19T12:38:15;100148.84;;;15.16;77.73
18022;BME280;9136;48.822;7.966;2023-03-19T12:41:21;100179.09;;;15.10;78.23
18022;BME280;9136;48.822;7.966;2023-03-19T12:44:13;100145.66;;;15.09;77.84
18022;BME280;9136;48.822;7.966;2023-03-19T12:47:09;100138.41;;;14.96;77.71
18022;BME280;9136;48.822;7.966;2023-03-19T12:50:09;100166.91;;;14.91;78.98
18022;BME280;9136;48.822;7.966;2023-03-19T12:53:00;100155.19;;;14.62;82.45
18022;BME280;9136;48.822;7.966;2023-03-19T12:56:03;100151.13;;;14.89;78.75
18022;BME280;9136;48.822;7.966;2023-03-19T12:59:00;100149.72;;;15.32;75.87
18022;BME280;9136;48.822;7.966;2023-03-19T13:02:11;100189.38;;;15.67;73.07
18022;BME280;9136;48.822;7.966;2023-03-19T13:05:06;100160.28;;;15.83;72.72
18022;BME280;9136;48.822;7.966;2023-03-19T13:08:00;100144.09;;;15.87;69.02
18022;BME280;9136;48.822;7.966;2023-03-19T13:10:51;100147.03;;;15.83;66.74
18022;BME280;9136;48.822;7.966;2023-03-19T13:13:46;100150.47;;;15.34;70.09
18022;BME280;9136;48.822;7.966;2023-03-19T13:16:40;100142.44;;;15.20;71.54
18022;BME280;9136;48.822;7.966;2023-03-19T13:19:37;100141.91;;;15.13;72.99
18022;BME280;9136;48.822;7.966;2023-03-19T13:22:31;100141.66;;;15.51;72.52
18022;BME280;9136;48.822;7.966;2023-03-19T13:25:26;100138.78;;;15.71;71.11
18022;BME280;9136;48.822;7.966;2023-03-19T13:28:22;100148.28;;;15.91;68.74
18022;BME280;9136;48.822;7.966;2023-03-19T13:31:24;100139.63;;;15.56;68.77
18022;BME280;9136;48.822;7.966;2023-03-19T13:34:28;100152.66;;;14.93;81.64
18022;BME280;9136;48.822;7.966;2023-03-19T13:37:19;100131.47;;;14.77;96.13
18022;BME280;9136;48.822;7.966;2023-03-19T13:40:37;100138.28;;;14.47;100.00
18022;BME280;9136;48.822;7.966;2023-03-19T13:43:53;100139.81;;;14.33;100.00
18022;BME280;9136;48.822;7.966;2023-03-19T13:46:43;100130.22;;;14.67;100.00
18022;BME280;9136;48.822;7.966;2023-03-19T13:49:33;100139.63;;;15.23;100.00
18022;BME280;9136;48.822;7.966;2023-03-19T13:52:47;100126.66;;;15.18;100.00
18022;BME280;9136;48.822;7.966;2023-03-19T13:55:50;100132.22;;;15.94;99.82
18022;BME280;9136;48.822;7.966;2023-03-19T13:58:47;100121.38;;;16.45;88.57
18022;BME280;9136;48.822;7.966;2023-03-19T14:01:39;100151.78;;;16.08;92.93
18022;BME280;9136;48.822;7.966;2023-03-19T14:04:33;100131.25;;;16.11;91.17
18022;BME280;9136;48.822;7.966;2023-03-19T14:07:27;100132.97;;;15.81;92.54
18022;BME280;9136;48.822;7.966;2023-03-19T14:10:21;100124.63;;;15.88;93.15
18022;BME280;9136;48.822;7.966;2023-03-19T14:13:18;100123.16;;;15.98;91.28
18022;BME280;9136;48.822;7.966;2023-03-19T14:16:14;100115.81;;;16.03;91.05
18022;BME280;9136;48.822;7.966;2023-03-19T14:19:11;100126.13;;;16.24;91.74
18022;BME280;9136;48.822;7.966;2023-03-19T14:22:15;100131.25;;;16.27;84.76
18022;BME280;9136;48.822;7.966;2023-03-19T14:25:17;100150.50;;;15.99;89.84
18022;BME280;9136;48.822;7.966;2023-03-19T14:28:09;100130.75;;;15.89;90.45
18022;BME280;9136;48.822;7.966;2023-03-19T14:30:57;100124.28;;;15.94;92.08
18022;BME280;9136;48.822;7.966;2023-03-19T14:33:51;100135.66;;;15.96;92.80
18022;BME280;9136;48.822;7.966;2023-03-19T14:36:44;100133.69;;;15.84;91.00
18022;BME280;9136;48.822;7.966;2023-03-19T14:39:39;100115.66;;;15.75;91.04
18022;BME280;9136;48.822;7.966;2023-03-19T14:42:36;100125.94;;;15.48;92.16
18022;BME280;9136;48.822;7.966;2023-03-19T14:52:30;100128.25;;;14.53;100.00
18022;BME280;9136;48.822;7.966;2023-03-19T14:55:37;100136.38;;;14.31;100.00
18022;BME280;9136;48.822;7.966;2023-03-19T14:58:25;100142.81;;;13.90;100.00
18022;BME280;9136;48.822;7.966;2023-03-19T15:01:32;100144.59;;;13.33;100.00
18022;BME280;9136;48.822;7.966;2023-03-19T15:04:24;100150.28;;;13.03;100.00
18022;BME280;9136;48.822;7.966;2023-03-19T15:07:18;100120.63;;;12.78;100.00
18022;BME280;9136;48.822;7.966;2023-03-19T15:10:13;100110.22;;;12.75;100.00
18022;BME280;9136;48.822;7.966;2023-03-19T15:13:25;100114.44;;;12.79;100.00
18022;BME280;9136;48.822;7.966;2023-03-19T15:16:27;100143.34;;;12.80;100.00
18022;BME280;9136;48.822;7.966;2023-03-19T15:19:23;100111.97;;;12.54;100.00
18022;BME280;9136;48.822;7.966;2023-03-19T15:22:13;100107.44;;;12.57;100.00
18022;BME280;9136;48.822;7.966;2023-03-19T15:25:05;100119.50;;;12.63;100.00
18022;BME280;9136;48.822;7.966;2023-03-19T15:28:06;100131.41;;;12.72;100.00
18022;BME280;9136;48.822;7.966;2023-03-19T15:30:59;100145.59;;;12.69;100.00
18022;BME280;9136;48.822;7.966;2023-03-19T15:33:47;100149.44;;;12.40;100.00
18022;BME280;9136;48.822;7.966;2023-03-19T15:36:35;100160.00;;;12.18;100.00
18022;BME280;9136;48.822;7.966;2023-03-19T15:39:25;100164.28;;;11.99;100.00
18022;BME280;9136;48.822;7.966;2023-03-19T15:42:15;100175.25;;;11.88;100.00
18022;BME280;9136;48.822;7.966;2023-03-19T15:45:06;100172.94;;;11.79;100.00
18022;BME280;9136;48.822;7.966;2023-03-19T15:47:59;100161.78;;;11.72;100.00
18022;BME280;9136;48.822;7.966;2023-03-19T15:50:50;100148.75;;;11.69;100.00
18022;BME280;9136;48.822;7.966;2023-03-19T15:53:43;100164.28;;;11.75;100.00
18022;BME280;9136;48.822;7.966;2023-03-19T15:56:32;100162.47;;;11.78;100.00
18022;BME280;9136;48.822;7.966;2023-03-19T15:59:22;100186.28;;;11.98;100.00